Time;durP1;ratioP1;P1;durP2;ratioP2;P2;SDS_P1;SDS_P2;PMS_P1;PMS_P2;Temp;Humidity;BMP_temperature;BMP_pressure;BME280_temperature;BME280_humidity;BME280_pressure;Samples;Min_cycle;Max_cycle;Signal;HPM_P1;HPM_P2
2021/08/08 00:02:15;;;;;;;18.17;8.75;;;;;16.50;100944.00;;;;5109690;28;20058;-79
2021/08/08 00:04:41;;;;;;;11.95;8.77;;;;;16.40;100946.00;;;;5109570;28;20027;-77
2021/08/08 00:07:08;;;;;;;17.25;9.52;;;;;16.30;100951.00;;;;5107470;28;20102;-78
2021/08/08 00:09:35;;;;;;;16.77;9.48;;;;;16.30;100944.00;;;;5109636;28;20107;-78
2021/08/08 00:12:02;;;;;;;16.98;8.98;;;;;16.40;100970.00;;;;5109969;28;20130;-78
2021/08/08 00:14:29;;;;;;;14.40;9.73;;;;;16.30;100955.00;;;;5109752;28;20051;-77
2021/08/08 00:16:56;;;;;;;15.05;10.30;;;;;16.20;100968.00;;;;5109430;28;20512;-77
2021/08/08 00:19:22;;;;;;;19.60;11.15;;;;;16.20;100972.00;;;;5109550;28;20030;-78
2021/08/08 00:21:49;;;;;;;18.45;11.25;;;;;16.10;100957.00;;;;5108587;28;20499;-77
2021/08/08 00:24:16;;;;;;;14.32;11.35;;;;;16.10;100968.00;;;;5109383;28;20027;-78
2021/08/08 00:26:42;;;;;;;17.70;11.32;;;;;16.00;100959.00;;;;5109666;27;20099;-78
2021/08/08 00:29:09;;;;;;;21.95;12.80;;;;;16.10;100961.00;;;;5109620;28;20026;-79
2021/08/08 00:31:35;;;;;;;15.68;12.10;;;;;16.20;100979.00;;;;5109201;28;20030;-79
2021/08/08 00:34:02;;;;;;;22.92;11.25;;;;;16.20;100968.00;;;;5109846;28;20543;-78
2021/08/08 00:36:28;;;;;;;22.33;12.20;;;;;16.20;100982.00;;;;5109066;28;20129;-77
2021/08/08 00:38:58;;;;;;;17.30;12.95;;;;;16.30;100966.00;;;;5109314;27;20038;-76
2021/08/08 00:41:25;;;;;;;16.90;11.75;;;;;16.30;100982.00;;;;5109149;28;20494;-77
2021/08/08 00:43:51;;;;;;;17.27;12.75;;;;;16.40;100991.00;;;;5108992;28;20027;-77
2021/08/08 00:46:18;;;;;;;15.77;12.10;;;;;16.30;100967.00;;;;5108133;28;20035;-77
2021/08/08 00:48:44;;;;;;;19.15;12.02;;;;;16.30;100970.00;;;;5108383;27;20054;-77
2021/08/08 00:51:11;;;;;;;21.67;12.95;;;;;16.30;100965.00;;;;5108359;28;20032;-79
2021/08/08 00:53:38;;;;;;;19.42;12.75;;;;;16.40;100976.00;;;;5107152;28;20035;-77
2021/08/08 00:58:39;;;;;;;19.83;13.00;;;;;16.30;100971.00;;;;4901608;26;20109;-78
2021/08/08 01:01:08;;;;;;;24.23;13.00;;;;;16.20;100962.00;;;;5108314;28;20086;-77
2021/08/08 01:03:34;;;;;;;21.27;12.68;;;;;16.30;100975.00;;;;5108299;28;20781;-76
2021/08/08 01:06:38;;;;;;;14.35;12.52;;;;;16.20;100993.00;;;;5108799;28;20020;-74
2021/08/08 01:09:08;;;;;;;21.27;12.63;;;;;16.20;100988.00;;;;5107597;28;20544;-77
2021/08/08 01:11:35;;;;;;;17.10;13.00;;;;;16.10;100982.00;;;;5109483;28;20398;-73
2021/08/08 01:14:03;;;;;;;15.48;12.32;;;;;16.00;100974.00;;;;5107797;28;20499;-75
2021/08/08 01:16:32;;;;;;;17.95;12.52;;;;;15.90;100982.00;;;;5108095;28;20564;-74
2021/08/08 01:18:58;;;;;;;20.33;12.80;;;;;15.90;100968.00;;;;5107540;28;20122;-77
2021/08/08 01:21:27;;;;;;;15.88;11.85;;;;;15.90;100966.00;;;;5108074;28;20066;-77
2021/08/08 01:23:59;;;;;;;20.20;12.13;;;;;15.90;100974.00;;;;5107171;28;20337;-76
2021/08/08 01:26:26;;;;;;;;;;;;;15.90;100989.00;;;;5109759;28;20126;-75
2021/08/08 01:28:54;;;;;;;15.60;11.32;;;;;15.80;100974.00;;;;5108145;28;19915;-78
2021/08/08 01:31:21;;;;;;;16.70;12.40;;;;;15.70;100965.00;;;;5107970;28;20398;-76
2021/08/08 01:33:48;;;;;;;16.98;12.60;;;;;15.70;100980.00;;;;5107817;28;20465;-76
2021/08/08 01:36:15;;;;;;;21.00;11.82;;;;;15.70;100980.00;;;;5108087;28;20477;-75
2021/08/08 01:39:06;;;;;;;14.63;11.77;;;;;15.60;100964.00;;;;5107853;28;20026;-78
2021/08/08 01:41:59;;;;;;;19.52;12.07;;;;;15.70;100960.00;;;;5102443;28;20043;-74
2021/08/08 01:44:31;;;;;;;16.50;11.88;;;;;15.70;100967.00;;;;5107291;28;20039;-75
2021/08/08 01:46:59;;;;;;;15.77;10.88;;;;;15.60;100972.00;;;;5106961;28;20055;-75
2021/08/08 01:49:28;;;;;;;16.15;10.65;;;;;15.60;100963.00;;;;5106320;28;20091;-76
2021/08/08 01:51:57;;;;;;;15.00;11.95;;;;;15.50;100980.00;;;;5106947;28;20031;-75
2021/08/08 01:54:24;;;;;;;14.90;11.40;;;;;15.40;100986.00;;;;5106922;28;20023;-75
2021/08/08 01:56:54;;;;;;;20.25;11.82;;;;;15.40;100963.00;;;;5113267;27;20047;-76
2021/08/08 01:59:21;;;;;;;13.50;10.73;;;;;15.30;100970.00;;;;5127866;27;20015;-76
2021/08/08 02:01:48;;;;;;;16.90;11.07;;;;;15.40;100993.00;;;;5126876;27;20529;-76
2021/08/08 02:04:19;;;;;;;16.73;11.02;;;;;15.40;100984.00;;;;5127231;27;20489;-77
2021/08/08 02:06:46;;;;;;;13.60;10.68;;;;;15.50;100980.00;;;;5128156;27;20028;-76
2021/08/08 02:09:13;;;;;;;13.77;10.18;;;;;15.50;100984.00;;;;5128401;27;20074;-75
2021/08/08 02:11:40;;;;;;;17.25;10.27;;;;;15.40;101000.00;;;;5128153;27;20098;-78
2021/08/08 02:14:07;;;;;;;13.65;11.00;;;;;15.30;100976.00;;;;5127969;27;20026;-76
2021/08/08 02:16:34;;;;;;;17.98;10.23;;;;;15.20;100965.00;;;;5127314;27;20580;-78
2021/08/08 02:19:01;;;;;;;12.65;10.50;;;;;15.20;100967.00;;;;5127831;27;20027;-76
2021/08/08 02:21:27;;;;;;;16.80;10.23;;;;;15.10;100968.00;;;;5128234;27;20568;-76
2021/08/08 02:23:54;;;;;;;17.40;10.18;;;;;15.10;100986.00;;;;5127854;27;20389;-75
2021/08/08 02:26:21;;;;;;;13.75;10.73;;;;;15.00;100977.00;;;;5127601;27;20061;-78
2021/08/08 02:28:47;;;;;;;15.73;10.13;;;;;15.00;100973.00;;;;5128148;27;20027;-77
2021/08/08 02:31:17;;;;;;;14.85;10.73;;;;;15.00;100970.00;;;;5126993;27;20031;-76
2021/08/08 02:33:45;;;;;;;15.07;9.77;;;;;15.10;100978.00;;;;5126742;27;20142;-73
2021/08/08 02:36:12;;;;;;;11.90;9.85;;;;;15.00;100985.00;;;;5127585;27;20498;-77
2021/08/08 02:38:39;;;;;;;14.45;10.70;;;;;14.90;100985.00;;;;5127695;27;20114;-78
2021/08/08 02:41:08;;;;;;;17.60;10.00;;;;;15.00;100971.00;;;;5128083;27;20035;-75
2021/08/08 02:43:35;;;;;;;14.85;9.27;;;;;15.00;100984.00;;;;5127895;27;20030;-77
2021/08/08 02:46:02;;;;;;;10.70;9.60;;;;;15.00;100976.00;;;;5127596;27;20027;-77
2021/08/08 02:48:29;;;;;;;11.35;8.98;;;;;14.90;100979.00;;;;5127623;27;20019;-76
2021/08/08 02:50:55;;;;;;;12.10;9.88;;;;;14.90;100987.00;;;;5127910;27;20035;-75
2021/08/08 02:53:22;;;;;;;13.07;9.23;;;;;14.90;100986.00;;;;5127713;27;20435;-74
2021/08/08 02:55:48;;;;;;;11.73;9.93;;;;;14.90;100969.00;;;;5127347;27;20080;-76
2021/08/08 02:58:15;;;;;;;16.17;9.68;;;;;14.90;100975.00;;;;5127446;27;20047;-73
2021/08/08 03:00:41;;;;;;;12.85;9.23;;;;;14.90;100962.00;;;;5127653;27;20118;-78
2021/08/08 03:03:08;;;;;;;10.95;8.95;;;;;15.00;100981.00;;;;5127370;27;20023;-75
2021/08/08 03:05:34;;;;;;;14.27;8.95;;;;;14.90;100978.00;;;;5127861;28;20027;-76
2021/08/08 03:08:01;;;;;;;15.77;9.48;;;;;14.80;100962.00;;;;5126630;28;20059;-77
2021/08/08 03:10:28;;;;;;;12.77;9.90;;;;;14.70;100963.00;;;;5127142;28;20023;-75
2021/08/08 03:12:54;;;;;;;10.38;9.13;;;;;14.70;100951.00;;;;5126786;27;20118;-75
2021/08/08 03:15:21;;;;;;;10.23;9.02;;;;;14.70;100967.00;;;;5126084;28;20113;-76
2021/08/08 03:17:47;;;;;;;10.70;8.52;;;;;14.70;100961.00;;;;5127708;27;20389;-75
2021/08/08 03:20:14;;;;;;;14.00;8.98;;;;;14.60;100980.00;;;;5127346;28;20024;-77
2021/08/08 03:22:40;;;;;;;11.18;9.57;;;;;14.50;100946.00;;;;5127184;27;20023;-79
2021/08/08 03:25:08;;;;;;;15.27;8.77;;;;;14.40;100963.00;;;;5127471;27;20488;-77
2021/08/08 03:27:34;;;;;;;13.20;8.63;;;;;14.40;100972.00;;;;5127648;27;20035;-76
2021/08/08 03:30:01;;;;;;;14.35;8.43;;;;;14.40;100970.00;;;;5127354;28;20402;-75
2021/08/08 03:32:27;;;;;;;9.68;8.68;;;;;14.40;100987.00;;;;5127704;27;20095;-79
2021/08/08 03:34:54;;;;;;;12.80;8.98;;;;;14.40;100985.00;;;;5127469;27;20083;-74
2021/08/08 03:37:20;;;;;;;15.73;8.57;;;;;14.40;100982.00;;;;5125483;28;20087;-77
2021/08/08 03:39:47;;;;;;;11.02;8.27;;;;;14.40;100985.00;;;;5132432;28;20114;-72
2021/08/08 03:42:14;;;;;;;10.52;7.60;;;;;14.30;100975.00;;;;5136419;27;20106;-76
2021/08/08 03:44:40;;;;;;;15.07;8.05;;;;;14.30;100989.00;;;;5136193;27;20152;-77
2021/08/08 03:47:07;;;;;;;12.30;8.48;;;;;14.40;100986.00;;;;5130744;27;20478;-76
2021/08/08 03:49:33;;;;;;;13.60;8.13;;;;;14.60;100982.00;;;;5129377;27;20031;-74
2021/08/08 03:52:00;;;;;;;13.52;8.48;;;;;14.60;100983.00;;;;5130887;27;20106;-76
2021/08/08 03:54:26;;;;;;;11.05;8.15;;;;;14.50;100989.00;;;;5130986;27;20035;-77
2021/08/08 03:56:53;;;;;;;12.35;8.20;;;;;14.40;100992.00;;;;5130405;27;20058;-76
2021/08/08 03:59:19;;;;;;;12.38;7.82;;;;;14.20;100988.00;;;;5130579;27;20023;-77
2021/08/08 04:01:46;;;;;;;10.73;7.65;;;;;14.30;100980.00;;;;5130486;27;20027;-74
2021/08/08 04:04:12;;;;;;;9.18;7.20;;;;;14.40;100992.00;;;;5130600;27;20405;-79
2021/08/08 04:06:39;;;;;;;11.23;7.55;;;;;14.40;100996.00;;;;5130664;27;20030;-79
2021/08/08 04:09:06;;;;;;;10.88;7.47;;;;;14.40;100983.00;;;;5129941;27;20626;-74
2021/08/08 04:11:32;;;;;;;14.18;7.13;;;;;14.30;100996.00;;;;5129026;27;20497;-78
2021/08/08 04:13:59;;;;;;;8.85;6.72;;;;;14.30;100987.00;;;;5130368;27;20434;-78
2021/08/08 04:16:25;;;;;;;10.77;6.88;;;;;14.30;100985.00;;;;5130770;27;20084;-78
2021/08/08 04:18:52;;;;;;;13.02;7.13;;;;;14.20;100969.00;;;;5129539;27;20051;-76
2021/08/08 04:21:19;;;;;;;10.57;6.60;;;;;14.20;100984.00;;;;5130425;27;20023;-76
2021/08/08 04:23:45;;;;;;;8.98;6.88;;;;;14.20;100988.00;;;;5129694;27;20034;-75
2021/08/08 04:26:12;;;;;;;11.15;6.95;;;;;14.20;100976.00;;;;5130262;27;20058;-78
2021/08/08 04:28:41;;;;;;;10.48;7.22;;;;;14.10;100984.00;;;;5130126;27;20027;-74
2021/08/08 04:31:08;;;;;;;10.00;6.97;;;;;14.20;100975.00;;;;5130011;27;20042;-73
2021/08/08 04:33:36;;;;;;;9.68;7.70;;;;;14.10;100985.00;;;;5130137;27;20671;-75
2021/08/08 04:36:04;;;;;;;9.27;7.20;;;;;14.00;100992.00;;;;5129335;27;20076;-75
2021/08/08 04:38:31;;;;;;;13.70;7.07;;;;;13.90;100975.00;;;;5129902;27;20157;-75
2021/08/08 04:40:57;;;;;;;12.95;7.15;;;;;13.90;100982.00;;;;5130403;27;20057;-78
2021/08/08 04:43:24;;;;;;;8.60;6.03;;;;;13.90;100974.00;;;;5129773;27;20165;-75
2021/08/08 04:45:52;;;;;;;13.68;7.45;;;;;14.00;100987.00;;;;5129590;27;20023;-73
2021/08/08 04:48:18;;;;;;;9.73;5.97;;;;;14.00;100978.00;;;;5129507;27;20114;-74
2021/08/08 04:50:45;;;;;;;8.25;6.10;;;;;13.90;100982.00;;;;5129358;27;20142;-75
2021/08/08 04:53:16;;;;;;;10.38;6.75;;;;;13.80;100976.00;;;;5128118;27;20516;-73
2021/08/08 04:55:44;;;;;;;7.87;6.77;;;;;13.80;100960.00;;;;5129741;27;20034;-75
2021/08/08 04:58:11;;;;;;;12.48;6.35;;;;;13.70;100980.00;;;;5128955;27;20051;-75
2021/08/08 05:00:38;;;;;;;8.45;6.13;;;;;13.70;100978.00;;;;5129258;27;20032;-77
2021/08/08 05:03:04;;;;;;;15.07;6.90;;;;;13.70;100967.00;;;;5129026;27;20087;-75
2021/08/08 05:05:31;;;;;;;7.93;7.03;;;;;13.70;100978.00;;;;5129927;27;20824;-78
2021/08/08 05:07:58;;;;;;;8.68;6.57;;;;;13.70;100976.00;;;;5129962;27;20044;-74
2021/08/08 05:10:25;;;;;;;9.35;6.35;;;;;13.80;100971.00;;;;5129099;27;20027;-76
2021/08/08 05:12:53;;;;;;;8.85;6.80;;;;;13.70;100948.00;;;;5129042;27;20118;-74
2021/08/08 05:15:20;;;;;;;7.50;6.57;;;;;13.80;100959.00;;;;5128946;27;20413;-77
2021/08/08 05:17:47;;;;;;;6.78;5.80;;;;;13.80;100963.00;;;;5128964;27;20497;-77
2021/08/08 05:20:14;;;;;;;9.05;6.07;;;;;13.60;100946.00;;;;5129147;27;20063;-73
2021/08/08 05:22:41;;;;;;;9.20;5.63;;;;;13.70;100958.00;;;;5128593;27;20027;-76
2021/08/08 05:25:08;;;;;;;6.85;6.15;;;;;13.70;100945.00;;;;5128802;27;20147;-75
2021/08/08 05:27:35;;;;;;;7.03;6.32;;;;;13.80;100954.00;;;;5128893;27;20127;-76
2021/08/08 05:30:03;;;;;;;8.30;5.70;;;;;13.70;100939.00;;;;5128229;27;20421;-77
2021/08/08 05:32:29;;;;;;;11.05;6.28;;;;;13.70;100952.00;;;;5128997;27;20027;-75
2021/08/08 05:34:56;;;;;;;8.48;6.07;;;;;13.70;100941.00;;;;5129103;27;20477;-78
2021/08/08 05:37:23;;;;;;;7.05;6.07;;;;;13.70;100933.00;;;;5128271;27;20109;-78
2021/08/08 05:39:50;;;;;;;6.88;6.22;;;;;13.50;100937.00;;;;5128559;27;20035;-76
2021/08/08 05:42:20;;;;;;;8.63;6.40;;;;;13.60;100952.00;;;;5128589;27;20031;-77
2021/08/08 05:44:47;;;;;;;7.15;6.38;;;;;13.60;100961.00;;;;5127912;27;20039;-75
2021/08/08 05:47:14;;;;;;;11.13;5.85;;;;;13.50;100955.00;;;;5128470;27;20027;-77
2021/08/08 05:49:40;;;;;;;7.45;6.45;;;;;13.50;100946.00;;;;5128245;27;20047;-74
2021/08/08 05:52:07;;;;;;;10.05;6.63;;;;;13.50;100936.00;;;;5128149;27;20023;-74
2021/08/08 05:54:34;;;;;;;10.00;6.43;;;;;13.60;100948.00;;;;5129022;27;20024;-77
2021/08/08 05:57:00;;;;;;;8.23;5.93;;;;;13.60;100970.00;;;;5128358;27;20086;-76
2021/08/08 05:59:27;;;;;;;6.55;5.93;;;;;13.50;100947.00;;;;5127785;27;20397;-76
2021/08/08 06:01:53;;;;;;;8.50;5.88;;;;;13.40;100966.00;;;;5128564;27;20027;-77
2021/08/08 06:04:20;;;;;;;8.20;6.00;;;;;13.50;100946.00;;;;5128511;27;20027;-76
2021/08/08 06:06:47;;;;;;;9.30;5.95;;;;;13.50;100952.00;;;;5128207;27;20031;-76
2021/08/08 06:09:13;;;;;;;6.85;6.00;;;;;13.40;100947.00;;;;5127952;27;20481;-74
2021/08/08 06:11:40;;;;;;;9.02;6.05;;;;;13.30;100956.00;;;;5127898;27;20377;-77
2021/08/08 06:14:06;;;;;;;7.57;5.80;;;;;13.30;100959.00;;;;5127099;27;20114;-77
2021/08/08 06:16:33;;;;;;;8.88;6.18;;;;;13.30;100957.00;;;;5127939;27;20037;-78
2021/08/08 06:18:59;;;;;;;7.60;6.00;;;;;13.40;100972.00;;;;5127973;27;20053;-78
2021/08/08 06:21:26;;;;;;;7.53;5.93;;;;;13.30;100958.00;;;;5127874;27;20067;-74
2021/08/08 06:23:53;;;;;;;7.22;5.88;;;;;13.30;100969.00;;;;5127325;27;20498;-75
2021/08/08 06:26:19;;;;;;;7.70;6.15;;;;;13.20;100971.00;;;;5127814;27;20019;-74
2021/08/08 06:28:46;;;;;;;10.05;6.20;;;;;13.20;100961.00;;;;5127960;27;20034;-77
2021/08/08 06:31:13;;;;;;;7.30;5.95;;;;;13.20;100948.00;;;;5128006;27;20088;-77
2021/08/08 06:33:39;;;;;;;7.10;5.95;;;;;13.30;100951.00;;;;5127493;27;20015;-76
2021/08/08 06:36:06;;;;;;;7.60;6.00;;;;;13.30;100945.00;;;;5127730;27;20023;-77
2021/08/08 06:38:35;;;;;;;11.82;5.68;;;;;13.10;100948.00;;;;5127804;27;20023;-79
2021/08/08 06:41:02;;;;;;;9.32;5.95;;;;;13.10;100955.00;;;;5127967;27;20440;-74
2021/08/08 06:43:29;;;;;;;9.20;6.15;;;;;13.10;100967.00;;;;5127884;27;20066;-74
2021/08/08 06:45:55;;;;;;;10.75;5.78;;;;;13.10;100962.00;;;;5128276;27;20035;-74
2021/08/08 06:48:22;;;;;;;6.68;5.63;;;;;13.20;100956.00;;;;5127788;27;20019;-76
2021/08/08 06:50:48;;;;;;;7.38;5.63;;;;;13.10;100947.00;;;;5127405;28;20027;-74
2021/08/08 06:53:15;;;;;;;6.00;5.43;;;;;13.10;100965.00;;;;5128104;28;20438;-76
2021/08/08 06:55:41;;;;;;;7.70;6.10;;;;;13.00;100955.00;;;;5127443;27;20084;-75
2021/08/08 06:58:08;;;;;;;9.73;5.95;;;;;13.00;100955.00;;;;5127330;27;20146;-78
2021/08/08 07:00:34;;;;;;;7.00;5.80;;;;;12.90;100954.00;;;;5127323;28;20027;-76
2021/08/08 07:03:01;;;;;;;8.65;5.68;;;;;12.90;100964.00;;;;5127088;28;20035;-74
2021/08/08 07:05:28;;;;;;;7.88;5.50;;;;;12.90;100968.00;;;;5127339;27;20489;-73
2021/08/08 07:07:54;;;;;;;8.50;6.43;;;;;12.80;100961.00;;;;5127345;27;20453;-75
2021/08/08 07:10:21;;;;;;;6.40;5.30;;;;;12.80;100973.00;;;;5127228;27;20088;-76
2021/08/08 07:12:47;;;;;;;10.25;5.85;;;;;12.80;100964.00;;;;5127645;27;20062;-74
2021/08/08 07:15:14;;;;;;;8.57;5.60;;;;;12.70;100957.00;;;;5126813;28;20493;-73
2021/08/08 07:17:40;;;;;;;6.57;5.53;;;;;12.70;100975.00;;;;5131249;27;20031;-76
2021/08/08 07:20:08;;;;;;;9.43;6.40;;;;;12.70;100965.00;;;;5131790;27;20026;-77
2021/08/08 07:22:34;;;;;;;7.95;6.03;;;;;12.70;100959.00;;;;5131460;27;20039;-76
2021/08/08 07:25:01;;;;;;;6.82;6.13;;;;;12.70;100984.00;;;;5130774;27;20580;-76
2021/08/08 07:27:27;;;;;;;7.50;6.18;;;;;12.70;100980.00;;;;5131200;27;20031;-74
2021/08/08 07:29:54;;;;;;;7.25;6.00;;;;;12.50;100977.00;;;;5131331;27;20110;-75
2021/08/08 07:32:21;;;;;;;8.48;5.38;;;;;12.50;100972.00;;;;5131418;27;20430;-78
2021/08/08 07:34:47;;;;;;;8.43;6.00;;;;;12.60;100968.00;;;;5131127;27;20080;-75
2021/08/08 07:37:14;;;;;;;7.10;5.95;;;;;12.70;100973.00;;;;5131298;27;20031;-76
2021/08/08 07:39:41;;;;;;;10.38;6.05;;;;;12.70;100947.00;;;;5131337;27;20039;-77
2021/08/08 07:42:07;;;;;;;8.38;5.20;;;;;12.60;100968.00;;;;5131733;27;20023;-77
2021/08/08 07:44:34;;;;;;;8.93;5.20;;;;;12.40;100967.00;;;;5130823;27;20023;-76
2021/08/08 07:47:00;;;;;;;9.43;6.18;;;;;12.50;100984.00;;;;5130932;27;20414;-76
2021/08/08 07:49:27;;;;;;;7.20;6.07;;;;;12.60;100970.00;;;;5129621;27;20138;-75
2021/08/08 07:51:53;;;;;;;11.50;6.22;;;;;12.60;100970.00;;;;5130623;27;20109;-76
2021/08/08 07:54:21;;;;;;;7.57;5.95;;;;;12.50;100976.00;;;;5130892;27;20080;-75
2021/08/08 07:56:47;;;;;;;6.80;6.10;;;;;12.50;100976.00;;;;5130451;27;20035;-76
2021/08/08 07:59:14;;;;;;;9.93;6.53;;;;;12.50;100985.00;;;;5130434;27;20027;-75
2021/08/08 08:01:41;;;;;;;8.27;6.07;;;;;12.50;100978.00;;;;5130697;27;20035;-75
2021/08/08 08:04:09;;;;;;;6.57;5.90;;;;;12.40;100984.00;;;;5130987;27;20023;-78
2021/08/08 08:06:35;;;;;;;6.45;5.65;;;;;12.40;100975.00;;;;5129864;27;20401;-78
2021/08/08 08:09:02;;;;;;;7.22;5.93;;;;;12.40;100988.00;;;;5129863;27;20443;-75
2021/08/08 08:11:29;;;;;;;8.60;5.90;;;;;12.40;100954.00;;;;5130055;27;20023;-75
2021/08/08 08:13:55;;;;;;;11.75;6.35;;;;;12.40;100968.00;;;;5128561;27;20083;-75
2021/08/08 08:16:22;;;;;;;10.02;6.47;;;;;12.30;100961.00;;;;5130334;27;20052;-75
2021/08/08 08:18:48;;;;;;;6.20;5.53;;;;;12.40;100957.00;;;;5129931;27;20027;-74
2021/08/08 08:21:15;;;;;;;6.72;6.05;;;;;12.30;100980.00;;;;5129833;27;20031;-74
2021/08/08 08:23:41;;;;;;;11.45;6.07;;;;;12.30;100985.00;;;;5130645;27;20064;-73
2021/08/08 08:26:08;;;;;;;9.07;6.05;;;;;12.30;100985.00;;;;5130119;27;20027;-76
2021/08/08 08:28:35;;;;;;;7.90;5.88;;;;;12.30;100998.00;;;;5133456;27;20489;-74
2021/08/08 08:31:01;;;;;;;7.75;6.53;;;;;12.20;100997.00;;;;5139732;27;20640;-76
2021/08/08 08:33:28;;;;;;;7.75;6.50;;;;;12.30;100994.00;;;;5138488;27;20397;-73
2021/08/08 08:35:54;;;;;;;12.25;6.15;;;;;12.30;101004.00;;;;5131989;27;20574;-75
2021/08/08 08:38:21;;;;;;;9.73;6.38;;;;;12.20;100995.00;;;;5129922;27;20019;-74
2021/08/08 08:40:48;;;;;;;9.52;5.78;;;;;12.20;100993.00;;;;5128589;27;20038;-79
2021/08/08 08:43:16;;;;;;;7.75;6.47;;;;;12.20;100999.00;;;;5130044;27;20023;-78
2021/08/08 08:45:45;;;;;;;6.63;5.93;;;;;12.20;101023.00;;;;5130043;27;20030;-73
2021/08/08 08:48:15;;;;;;;6.90;6.10;;;;;12.20;101021.00;;;;5129157;27;20489;-75
2021/08/08 08:50:42;;;;;;;7.47;6.75;;;;;12.20;101025.00;;;;5128944;27;20486;-74
2021/08/08 08:53:11;;;;;;;10.27;6.47;;;;;12.20;101014.00;;;;5130128;27;20023;-75
2021/08/08 08:55:39;;;;;;;6.90;6.20;;;;;12.20;101018.00;;;;5129468;27;20034;-75
2021/08/08 08:58:05;;;;;;;7.57;5.47;;;;;12.10;101011.00;;;;5129707;27;20142;-75
2021/08/08 09:00:32;;;;;;;6.97;6.28;;;;;12.10;101034.00;;;;5129388;27;20031;-75
2021/08/08 09:02:59;;;;;;;8.85;6.82;;;;;12.10;101036.00;;;;5128405;27;20076;-75
2021/08/08 09:05:27;;;;;;;13.05;6.55;;;;;12.20;101023.00;;;;5129610;27;20027;-79
2021/08/08 09:07:53;;;;;;;8.48;6.30;;;;;12.10;101022.00;;;;5129703;27;20618;-78
2021/08/08 09:10:22;;;;;;;9.45;6.13;;;;;12.10;101023.00;;;;5128814;27;20015;-78
2021/08/08 09:13:03;;;;;;;7.25;5.82;;;;;12.10;101025.00;;;;5129113;27;20076;-78
2021/08/08 09:15:33;;;;;;;15.15;6.60;;;;;12.00;101048.00;;;;5129134;27;20186;-76
2021/08/08 09:18:22;;;;;;;9.30;6.95;;;;;12.10;101034.00;;;;5129380;27;20034;-76
2021/08/08 09:20:50;;;;;;;11.02;6.97;;;;;12.10;101048.00;;;;5129623;27;20019;-75
2021/08/08 09:23:18;;;;;;;11.70;7.32;;;;;12.10;101041.00;;;;5128842;27;20077;-76
2021/08/08 09:25:53;;;;;;;11.15;7.18;;;;;12.10;101058.00;;;;5128117;27;20074;-76
2021/08/08 09:28:28;;;;;;;12.68;7.25;;;;;12.10;101046.00;;;;5128926;27;20028;-74
2021/08/08 09:30:55;;;;;;;9.85;7.07;;;;;12.10;101029.00;;;;5128973;27;20512;-74
2021/08/08 09:33:21;;;;;;;8.55;6.40;;;;;12.10;101063.00;;;;5126987;27;20055;-73
2021/08/08 09:35:53;;;;;;;9.95;6.85;;;;;12.00;101045.00;;;;5128979;27;20063;-75
2021/08/08 09:38:23;;;;;;;10.43;6.55;;;;;12.00;101061.00;;;;5127073;27;20042;-77
2021/08/08 09:41:01;;;;;;;9.02;6.57;;;;;12.00;101073.00;;;;5128390;27;20035;-73
2021/08/08 09:43:29;;;;;;;8.00;6.68;;;;;12.00;101068.00;;;;5128704;27;20118;-74
2021/08/08 09:45:56;;;;;;;11.40;6.78;;;;;11.90;101077.00;;;;5128403;27;20027;-76
2021/08/08 09:48:37;;;;;;;9.32;6.03;;;;;11.90;101085.00;;;;5128270;27;20028;-77
2021/08/08 09:51:09;;;;;;;7.25;6.22;;;;;12.00;101066.00;;;;5128374;27;20039;-76
2021/08/08 09:53:36;;;;;;;10.43;6.53;;;;;12.00;101066.00;;;;5128155;27;20544;-73
2021/08/08 09:56:03;;;;;;;11.20;6.70;;;;;11.90;101077.00;;;;5128196;27;20040;-77
2021/08/08 09:58:39;;;;;;;10.57;7.15;;;;;11.90;101058.00;;;;5127054;27;20047;-73
2021/08/08 10:01:05;;;;;;;9.38;6.32;;;;;11.90;101084.00;;;;5127673;27;20035;-78
2021/08/08 10:03:32;;;;;;;10.10;7.18;;;;;12.00;101073.00;;;;5127747;27;20080;-75
2021/08/08 10:06:00;;;;;;;12.65;6.93;;;;;12.00;101073.00;;;;5128009;27;20106;-74
2021/08/08 10:08:28;;;;;;;6.45;5.85;;;;;11.90;101068.00;;;;5127763;27;20027;-78
2021/08/08 10:10:55;;;;;;;7.25;6.07;;;;;11.90;101074.00;;;;5127563;27;20041;-78
2021/08/08 10:13:40;;;;;;;12.73;7.00;;;;;12.00;101085.00;;;;5127746;27;20076;-76
2021/08/08 10:16:09;;;;;;;11.82;6.60;;;;;11.90;101092.00;;;;5127786;27;20794;-77
2021/08/08 10:18:54;;;;;;;10.75;6.75;;;;;12.10;101090.00;;;;5127351;27;20408;-78
2021/08/08 10:21:21;;;;;;;9.75;6.93;;;;;12.10;101076.00;;;;5128674;27;20072;-73
2021/08/08 10:23:50;;;;;;;9.50;6.82;;;;;12.00;101095.00;;;;5127751;27;20027;-74
2021/08/08 10:26:17;;;;;;;8.93;6.65;;;;;12.00;101093.00;;;;5126972;27;20538;-77
2021/08/08 10:28:44;;;;;;;15.63;7.50;;;;;12.20;101107.00;;;;5127820;27;20027;-76
2021/08/08 10:31:17;;;;;;;12.63;6.88;;;;;12.30;101101.00;;;;5127459;27;20023;-76
2021/08/08 10:33:49;;;;;;;10.15;6.57;;;;;12.20;101101.00;;;;5127565;27;20023;-75
2021/08/08 10:36:24;;;;;;;10.13;6.18;;;;;12.40;101102.00;;;;5127724;27;20142;-76
2021/08/08 10:38:53;;;;;;;11.23;6.88;;;;;12.50;101118.00;;;;5127224;27;20043;-76
2021/08/08 10:41:20;;;;;;;7.80;6.38;;;;;13.00;101081.00;;;;5127467;27;20041;-74
2021/08/08 10:43:47;;;;;;;17.05;6.85;;;;;13.90;101030.00;;;;5127733;27;20027;-73
2021/08/08 10:46:15;;;;;;;16.95;6.15;;;;;15.40;101007.00;;;;5125861;27;20038;-76
2021/08/08 10:48:44;;;;;;;14.27;5.28;;;;;16.00;101023.00;;;;5127065;27;20026;-76
2021/08/08 10:51:18;;;;;;;8.50;4.47;;;;;15.50;101038.00;;;;5125960;27;20023;-77
2021/08/08 10:53:45;;;;;;;8.30;4.32;;;;;15.40;101045.00;;;;5126942;27;20110;-74
2021/08/08 10:56:12;;;;;;;4.97;4.30;;;;;15.70;101051.00;;;;5127442;27;20027;-74
2021/08/08 10:58:41;;;;;;;9.82;4.50;;;;;15.60;101059.00;;;;5125931;28;20433;-75
2021/08/08 11:01:22;;;;;;;6.47;4.53;;;;;15.70;101059.00;;;;5126969;28;20401;-73
2021/08/08 11:04:00;;;;;;;11.27;5.45;;;;;17.20;101012.00;;;;5127256;27;20546;-76
2021/08/08 11:06:29;;;;;;;11.65;6.60;;;;;17.40;101012.00;;;;5128021;27;20023;-77
2021/08/08 11:08:58;;;;;;;15.23;4.93;;;;;18.00;100980.00;;;;5127281;27;20080;-75
2021/08/08 11:11:30;;;;;;;9.98;4.93;;;;;18.30;100975.00;;;;5127319;27;20420;-74
2021/08/08 11:14:10;;;;;;;11.90;4.40;;;;;19.50;100919.00;;;;5126862;28;20019;-75
2021/08/08 11:16:38;;;;;;;7.28;3.80;;;;;20.20;100882.00;;;;5127355;27;20123;-76
2021/08/08 11:19:05;;;;;;;15.38;4.13;;;;;21.20;100897.00;;;;5127498;27;20035;-75
2021/08/08 11:21:31;;;;;;;5.85;4.00;;;;;21.30;100912.00;;;;5127479;27;20397;-76
2021/08/08 11:24:01;;;;;;;15.00;4.65;;;;;21.80;100898.00;;;;5126842;27;20490;-79
2021/08/08 11:26:29;;;;;;;5.57;3.60;;;;;22.00;100891.00;;;;5127099;27;20095;-75
2021/08/08 11:29:01;;;;;;;6.93;3.75;;;;;22.50;100901.00;;;;5127443;27;20035;-75
2021/08/08 11:31:34;;;;;;;8.18;3.53;;;;;23.00;100906.00;;;;5127884;27;20024;-76
2021/08/08 11:34:08;;;;;;;11.20;4.70;;;;;23.10;100916.00;;;;5127842;27;20038;-78
2021/08/08 11:36:36;;;;;;;4.82;3.10;;;;;23.40;100881.00;;;;5127651;27;20114;-76
2021/08/08 11:39:06;;;;;;;12.32;3.60;;;;;23.70;100875.00;;;;5126336;27;20039;-72
2021/08/08 11:41:33;;;;;;;9.23;3.88;;;;;23.80;100865.00;;;;5127148;27;20037;-76
2021/08/08 11:44:07;;;;;;;8.52;2.95;;;;;24.00;100855.00;;;;5127168;27;20489;-79
2021/08/08 11:46:35;;;;;;;6.40;3.20;;;;;24.10;100881.00;;;;5126765;27;20027;-76
2021/08/08 11:49:25;;;;;;;6.75;2.90;;;;;25.20;100902.00;;;;5126794;27;20405;-78
2021/08/08 11:52:00;;;;;;;4.07;2.85;;;;;25.30;100892.00;;;;5126962;27;20114;-76
2021/08/08 11:54:28;;;;;;;12.45;3.22;;;;;25.20;100891.00;;;;5126529;27;20020;-75
2021/08/08 11:56:56;;;;;;;11.63;3.75;;;;;25.60;100887.00;;;;5126357;27;20090;-76
2021/08/08 11:59:30;;;;;;;7.32;3.00;;;;;26.10;100882.00;;;;5127206;28;20027;-75
2021/08/08 12:02:06;;;;;;;5.55;3.38;;;;;26.20;100873.00;;;;5126997;27;20023;-72
2021/08/08 12:04:35;;;;;;;10.07;3.38;;;;;25.90;100878.00;;;;5131376;27;20034;-77
2021/08/08 12:07:06;;;;;;;6.60;3.15;;;;;26.20;100891.00;;;;5131328;27;20110;-76
2021/08/08 12:09:34;;;;;;;4.55;2.88;;;;;26.30;100890.00;;;;5130764;27;20495;-75